createdAt,value
2018-11-13T00:02:06.308Z,14.30
2018-11-13T00:04:34.707Z,14.63
2018-11-13T00:07:03.165Z,8.67
2018-11-13T00:09:31.572Z,9.97
2018-11-13T00:11:59.956Z,9.37
2018-11-13T00:14:28.840Z,6.63
2018-11-13T00:16:57.253Z,7.03
2018-11-13T00:19:25.696Z,7.03
2018-11-13T00:21:54.098Z,4.93
2018-11-13T00:24:23.296Z,5.87
2018-11-13T00:26:51.684Z,4.70
2018-11-13T00:29:20.230Z,5.70
2018-11-13T00:31:48.575Z,5.47
2018-11-13T00:34:16.958Z,10.23
2018-11-13T00:36:45.377Z,5.10
2018-11-13T00:39:14.535Z,7.40
2018-11-13T00:41:42.873Z,9.23
2018-11-13T00:44:12.013Z,7.00
2018-11-13T00:46:40.394Z,9.07
2018-11-13T00:49:09.544Z,5.03
2018-11-13T00:51:38.295Z,5.33
2018-11-13T00:54:06.722Z,5.00
2018-11-13T00:56:35.277Z,5.07
2018-11-13T00:59:03.675Z,6.70
2018-11-13T01:01:32.129Z,5.20
2018-11-13T01:04:00.517Z,5.80
2018-11-13T01:06:31.945Z,7.10
2018-11-13T01:09:00.509Z,9.50
2018-11-13T01:11:28.929Z,7.17
2018-11-13T01:13:57.292Z,7.70
2018-11-13T01:16:25.625Z,8.23
2018-11-13T01:18:54.072Z,8.63
2018-11-13T01:21:22.432Z,10.47
2018-11-13T01:23:50.740Z,9.93
2018-11-13T01:26:19.068Z,10.40
2018-11-13T01:28:47.463Z,8.67
2018-11-13T01:31:15.868Z,8.33
2018-11-13T01:33:44.177Z,11.50
2018-11-13T01:36:12.667Z,11.70
2018-11-13T01:38:40.967Z,14.30
2018-11-13T01:41:09.284Z,13.17
2018-11-13T01:43:37.604Z,10.93
2018-11-13T01:46:06.089Z,9.47
2018-11-13T01:48:34.402Z,10.43
2018-11-13T01:51:02.712Z,11.60
2018-11-13T01:53:31.081Z,12.40
2018-11-13T01:55:59.495Z,9.80
2018-11-13T01:58:27.791Z,10.87
2018-11-13T02:00:56.203Z,8.87
2018-11-13T02:03:24.607Z,9.50
2018-11-13T02:05:53.020Z,8.70
2018-11-13T02:08:21.329Z,9.20
2018-11-13T02:10:49.663Z,9.33
2018-11-13T02:13:17.964Z,7.77
2018-11-13T02:15:46.349Z,7.90
2018-11-13T02:18:14.661Z,16.70
2018-11-13T02:20:42.980Z,6.20
2018-11-13T02:23:11.327Z,8.33
2018-11-13T02:25:39.635Z,6.50
2018-11-13T02:28:07.949Z,7.07
2018-11-13T02:30:36.286Z,6.10
2018-11-13T02:33:04.887Z,6.00
2018-11-13T02:35:33.636Z,5.73
2018-11-13T02:38:01.848Z,6.53
2018-11-13T02:40:30.217Z,5.30
2018-11-13T02:42:58.723Z,6.83
2018-11-13T02:45:27.096Z,5.50
2018-11-13T02:47:55.465Z,5.70
2018-11-13T02:50:23.785Z,5.17
2018-11-13T02:52:52.107Z,4.43
2018-11-13T02:55:20.460Z,5.50
2018-11-13T02:57:48.797Z,4.00
2018-11-13T03:00:18.667Z,4.37
2018-11-13T03:02:47.120Z,4.23
2018-11-13T03:05:16.655Z,9.90
2018-11-13T03:07:45.088Z,3.93
2018-11-13T03:10:14.635Z,3.80
2018-11-13T03:12:43.149Z,4.10
2018-11-13T03:15:13.738Z,5.40
2018-11-13T03:17:42.200Z,4.10
2018-11-13T03:20:13.138Z,4.67
2018-11-13T03:22:42.006Z,5.30
2018-11-13T03:25:12.803Z,4.63
2018-11-13T03:27:41.187Z,5.03
2018-11-13T03:30:11.768Z,5.37
2018-11-13T03:32:40.165Z,4.63
2018-11-13T03:35:08.589Z,3.77
2018-11-13T03:37:36.984Z,3.70
2018-11-13T03:40:06.171Z,3.00
2018-11-13T03:42:34.651Z,2.93
2018-11-13T03:45:03.046Z,3.80
2018-11-13T03:47:31.412Z,4.30
2018-11-13T03:49:59.815Z,2.57
2018-11-13T03:52:28.209Z,2.13
2018-11-13T03:54:56.592Z,5.90
2018-11-13T03:57:25.021Z,3.00
2018-11-13T03:59:53.323Z,2.83
2018-11-13T04:02:21.700Z,3.17
2018-11-13T04:04:50.094Z,2.50
2018-11-13T04:07:18.464Z,2.50
2018-11-13T04:09:46.827Z,3.63
2018-11-13T04:12:15.238Z,5.10
2018-11-13T04:14:43.729Z,2.90
2018-11-13T04:17:12.109Z,4.30
2018-11-13T04:19:40.656Z,2.90
2018-11-13T04:22:09.085Z,2.67
2018-11-13T04:24:37.477Z,2.50
2018-11-13T04:27:05.911Z,2.13
2018-11-13T04:29:34.361Z,2.80
2018-11-13T04:32:02.873Z,3.00
2018-11-13T04:34:31.267Z,2.43
2018-11-13T04:36:59.710Z,3.13
2018-11-13T04:39:28.103Z,2.40
2018-11-13T04:41:56.401Z,2.27
2018-11-13T04:44:24.806Z,3.87
2018-11-13T04:46:53.238Z,3.07
2018-11-13T04:49:21.732Z,4.57
2018-11-13T04:51:50.147Z,2.33
2018-11-13T04:54:18.572Z,2.10
2018-11-13T04:56:47.020Z,2.37
2018-11-13T04:59:15.424Z,2.20
2018-11-13T05:01:43.852Z,2.70
2018-11-13T05:04:12.217Z,1.87
2018-11-13T05:06:40.564Z,1.97
2018-11-13T05:09:08.964Z,1.40
2018-11-13T05:11:37.492Z,2.00
2018-11-13T05:14:06.051Z,6.53
2018-11-13T05:16:34.467Z,1.70
2018-11-13T05:19:02.851Z,2.00
2018-11-13T05:21:31.303Z,1.70
2018-11-13T05:23:59.784Z,2.00
2018-11-13T05:26:28.181Z,1.67
2018-11-13T05:28:56.639Z,1.70
2018-11-13T05:31:25.056Z,2.63
2018-11-13T05:33:53.418Z,1.60
2018-11-13T05:36:21.852Z,1.87
2018-11-13T05:38:50.197Z,2.10
2018-11-13T05:41:18.568Z,1.90
2018-11-13T05:43:46.947Z,2.20
2018-11-13T05:46:15.323Z,2.80
2018-11-13T05:48:43.707Z,2.13
2018-11-13T05:51:12.136Z,1.97
2018-11-13T05:53:40.504Z,1.57
2018-11-13T05:56:08.844Z,2.60
2018-11-13T05:58:37.450Z,1.80
2018-11-13T06:01:06.044Z,1.80
2018-11-13T06:03:34.424Z,2.10
2018-11-13T06:06:02.920Z,2.00
2018-11-13T06:08:31.349Z,1.60
2018-11-13T06:10:59.583Z,1.50
2018-11-13T06:13:27.912Z,2.00
2018-11-13T06:15:56.372Z,1.63
2018-11-13T06:18:24.749Z,3.43
2018-11-13T06:20:52.977Z,4.50
2018-11-13T06:23:21.344Z,2.00
2018-11-13T06:25:49.672Z,2.63
2018-11-13T06:28:18.028Z,2.03
2018-11-13T06:30:46.356Z,2.60
2018-11-13T06:33:14.783Z,4.03
2018-11-13T06:35:43.215Z,2.10
2018-11-13T06:38:11.739Z,2.50
2018-11-13T06:40:40.242Z,3.00
2018-11-13T06:43:08.647Z,2.43
2018-11-13T06:45:37.040Z,3.03
2018-11-13T06:48:05.808Z,2.47
2018-11-13T06:50:34.196Z,3.00
2018-11-13T06:53:02.600Z,2.33
2018-11-13T06:55:32.997Z,2.70
2018-11-13T06:58:01.339Z,2.63
2018-11-13T07:00:29.614Z,4.17
2018-11-13T07:02:58.070Z,3.63
2018-11-13T07:05:26.348Z,3.20
2018-11-13T07:07:54.627Z,2.90
2018-11-13T07:10:24.090Z,2.20
2018-11-13T07:12:53.011Z,2.60
2018-11-13T07:15:23.189Z,5.03
2018-11-13T07:17:53.679Z,5.23
2018-11-13T07:20:23.009Z,3.50
2018-11-13T07:22:51.336Z,5.23
2018-11-13T07:25:19.733Z,3.20
2018-11-13T07:27:48.134Z,8.27
2018-11-13T07:30:17.443Z,3.07
2018-11-13T07:32:45.800Z,3.50
2018-11-13T07:35:15.707Z,5.23
2018-11-13T07:37:48.471Z,6.93
2018-11-13T07:40:17.296Z,6.30
2018-11-13T07:42:45.712Z,3.77
2018-11-13T07:45:25.951Z,3.80
2018-11-13T07:47:57.311Z,3.43
2018-11-13T07:50:28.133Z,3.53
2018-11-13T07:52:56.605Z,3.60
2018-11-13T07:55:24.905Z,4.20
2018-11-13T07:57:53.323Z,3.30
2018-11-13T08:00:22.967Z,6.27
2018-11-13T08:02:52.569Z,3.27
2018-11-13T08:05:21.022Z,4.40
2018-11-13T08:07:49.388Z,2.77
2018-11-13T08:10:17.688Z,2.87
2018-11-13T08:12:46.418Z,6.90
2018-11-13T08:15:16.082Z,3.30
2018-11-13T08:17:44.383Z,2.70
2018-11-13T08:20:13.888Z,3.83
2018-11-13T08:22:42.513Z,2.40
2018-11-13T08:25:11.235Z,2.70
2018-11-13T08:27:40.374Z,3.17
2018-11-13T08:30:12.700Z,2.30
2018-11-13T08:32:40.980Z,2.60
2018-11-13T08:35:09.349Z,2.10
2018-11-13T08:37:37.740Z,4.47
2018-11-13T08:40:07.925Z,2.43
2018-11-13T08:42:36.239Z,1.80
2018-11-13T08:45:04.621Z,2.80
2018-11-13T08:47:32.920Z,5.20
2018-11-13T08:50:01.895Z,1.97
2018-11-13T08:52:30.704Z,1.87
2018-11-13T08:54:59.033Z,2.20
2018-11-13T08:57:27.688Z,3.37
2018-11-13T08:59:55.989Z,2.80
2018-11-13T09:02:24.331Z,3.03
2018-11-13T09:04:52.879Z,2.33
2018-11-13T09:07:21.167Z,4.87
2018-11-13T09:09:49.494Z,7.13
2018-11-13T09:12:17.860Z,3.90
2018-11-13T09:14:46.166Z,3.60
2018-11-13T09:17:14.610Z,3.27
2018-11-13T09:19:42.975Z,2.00
2018-11-13T09:22:11.184Z,22.37
2018-11-13T09:24:39.456Z,5.33
2018-11-13T09:27:07.745Z,2.20
2018-11-13T09:29:36.109Z,4.20
2018-11-13T09:32:04.403Z,6.13
2018-11-13T09:34:32.770Z,2.40
2018-11-13T09:37:01.215Z,3.50
2018-11-13T09:39:29.644Z,3.43
2018-11-13T09:41:58.104Z,5.93
2018-11-13T09:44:26.583Z,5.20
2018-11-13T09:46:54.994Z,3.80
2018-11-13T09:49:23.510Z,2.07
2018-11-13T09:51:52.028Z,2.00
2018-11-13T09:54:20.414Z,1.83
2018-11-13T09:56:48.817Z,11.93
2018-11-13T09:59:17.824Z,6.90
2018-11-13T10:01:46.757Z,5.20
2018-11-13T10:04:15.810Z,6.13
2018-11-13T10:06:44.259Z,3.13
2018-11-13T10:09:14.104Z,3.97
2018-11-13T10:11:44.283Z,8.10
2018-11-13T10:14:13.871Z,3.27
2018-11-13T10:16:43.071Z,1.87
2018-11-13T10:19:12.563Z,4.60
2018-11-13T10:21:48.687Z,2.13
2018-11-13T10:24:18.054Z,4.20
2018-11-13T10:26:47.061Z,6.07
2018-11-13T10:29:16.338Z,3.63
2018-11-13T10:31:45.646Z,5.33
2018-11-13T10:34:14.690Z,3.50
2018-11-13T10:36:43.609Z,2.00
2018-11-13T10:39:12.945Z,2.73
2018-11-13T10:41:42.035Z,4.27
2018-11-13T10:44:10.882Z,4.40
2018-11-13T10:46:40.124Z,2.50
2018-11-13T10:49:09.378Z,4.33
2018-11-13T10:51:39.720Z,3.13
2018-11-13T10:54:08.894Z,2.80
2018-11-13T10:56:38.366Z,2.93
2018-11-13T10:59:07.485Z,8.37
2018-11-13T11:01:42.041Z,2.97
2018-11-13T11:04:16.051Z,3.57
2018-11-13T11:06:44.763Z,3.90
2018-11-13T11:09:13.453Z,2.83
2018-11-13T11:11:42.411Z,1.97
2018-11-13T11:14:11.393Z,3.20
2018-11-13T11:16:40.412Z,2.77
2018-11-13T11:19:09.604Z,1.93
2018-11-13T11:21:39.761Z,3.37
2018-11-13T11:24:08.723Z,3.00
2018-11-13T11:26:36.987Z,2.93
2018-11-13T11:29:13.063Z,3.60
2018-11-13T11:31:41.592Z,3.90
2018-11-13T11:34:09.933Z,5.90
2018-11-13T11:36:38.250Z,2.57
2018-11-13T11:39:08.508Z,3.40
2018-11-13T11:41:37.042Z,6.20
2018-11-13T11:44:06.327Z,3.20
2018-11-13T11:46:34.771Z,1.83
2018-11-13T11:49:04.049Z,7.43
2018-11-13T11:51:34.195Z,3.40
2018-11-13T11:54:04.308Z,2.43
2018-11-13T11:56:32.669Z,10.33
2018-11-13T11:59:01.042Z,2.40
2018-11-13T12:01:29.494Z,4.00
2018-11-13T12:03:57.759Z,2.97
2018-11-13T12:06:26.063Z,4.30
2018-11-13T12:08:55.315Z,3.77
2018-11-13T12:11:23.596Z,2.20
2018-11-13T12:13:51.891Z,6.97
2018-11-13T12:16:20.196Z,2.80
2018-11-13T12:18:48.502Z,1.80
2018-11-13T12:21:16.857Z,1.20
2018-11-13T12:23:45.221Z,3.60
2018-11-13T12:26:13.505Z,3.17
2018-11-13T12:28:41.784Z,5.03
2018-11-13T12:31:10.099Z,1.67
2018-11-13T12:33:38.380Z,3.80
2018-11-13T12:36:06.657Z,5.77
2018-11-13T12:38:34.936Z,5.53
2018-11-13T12:41:05.558Z,2.40
2018-11-13T12:46:18.091Z,4.00
2018-11-13T12:48:47.810Z,3.97
2018-11-13T12:51:22.989Z,2.70
2018-11-13T12:53:51.857Z,3.77
2018-11-13T12:56:20.467Z,6.20
2018-11-13T12:58:50.376Z,2.97
2018-11-13T13:01:18.911Z,4.00
2018-11-13T13:03:47.441Z,5.20
2018-11-13T13:06:16.238Z,6.03
2018-11-13T13:08:44.808Z,5.20
2018-11-13T13:11:13.416Z,13.23
2018-11-13T13:13:44.417Z,4.07
2018-11-13T13:16:14.556Z,3.07
2018-11-13T13:18:43.158Z,2.50
2018-11-13T13:21:11.597Z,2.80
2018-11-13T13:23:40.015Z,4.77
2018-11-13T13:26:08.955Z,6.07
2018-11-13T13:28:37.387Z,5.67
2018-11-13T13:31:06.069Z,14.20
2018-11-13T13:33:34.466Z,6.33
2018-11-13T13:36:04.563Z,3.37
2018-11-13T13:38:34.531Z,9.60
2018-11-13T13:41:03.649Z,5.30
2018-11-13T13:43:32.768Z,1.70
2018-11-13T13:46:01.281Z,2.30
2018-11-13T13:48:29.815Z,1.93
2018-11-13T13:50:58.579Z,11.63
2018-11-13T13:53:27.690Z,5.23
2018-11-13T13:55:56.058Z,8.77
2018-11-13T13:58:24.917Z,6.00
2018-11-13T14:00:53.639Z,4.63
2018-11-13T14:03:21.848Z,7.47
2018-11-13T14:05:50.161Z,7.53
2018-11-13T14:08:19.036Z,5.43
2018-11-13T14:10:47.429Z,2.80
2018-11-13T14:13:16.009Z,3.57
2018-11-13T14:15:44.424Z,8.20
2018-11-13T14:18:13.198Z,5.93
2018-11-13T14:20:41.570Z,4.43
2018-11-13T14:23:09.812Z,4.33
2018-11-13T14:25:38.213Z,3.87
2018-11-13T14:28:06.539Z,6.23
2018-11-13T14:30:36.085Z,9.43
2018-11-13T14:33:06.494Z,3.30
2018-11-13T14:35:35.021Z,11.63
2018-11-13T14:38:03.612Z,6.10
2018-11-13T14:40:36.401Z,6.00
2018-11-13T14:43:05.575Z,4.03
2018-11-13T14:45:34.028Z,7.87
2018-11-13T14:48:02.384Z,2.40
2018-11-13T14:50:32.125Z,7.73
2018-11-13T14:53:00.691Z,5.10
2018-11-13T14:55:31.581Z,4.00
2018-11-13T14:58:00.700Z,7.40
2018-11-13T15:00:30.041Z,6.23
2018-11-13T15:02:58.919Z,7.43
2018-11-13T15:05:27.828Z,9.77
2018-11-13T15:07:57.549Z,5.13
2018-11-13T15:10:31.974Z,8.20
2018-11-13T15:13:00.303Z,8.93
2018-11-13T15:15:28.588Z,6.60
2018-11-13T15:17:56.901Z,6.00
2018-11-13T15:20:25.224Z,2.53
2018-11-13T15:22:53.529Z,3.20
2018-11-13T15:25:21.839Z,8.63
2018-11-13T15:27:50.128Z,6.87
2018-11-13T15:30:26.756Z,8.30
2018-11-13T15:33:26.429Z,6.23
2018-11-13T15:35:54.794Z,2.77
2018-11-13T15:38:23.200Z,6.40
2018-11-13T15:40:51.688Z,8.53
2018-11-13T15:43:20.106Z,8.23
2018-11-13T15:45:48.516Z,4.63
2018-11-13T15:48:17.129Z,11.30
2018-11-13T15:50:45.588Z,5.00
2018-11-13T15:53:13.980Z,3.60
2018-11-13T15:55:42.464Z,7.10
2018-11-13T15:58:10.897Z,6.00
2018-11-13T16:00:40.624Z,6.77
2018-11-13T16:03:11.444Z,13.40
2018-11-13T16:05:42.174Z,7.23
2018-11-13T16:08:10.954Z,6.37
2018-11-13T16:10:39.277Z,6.30
2018-11-13T16:13:07.796Z,4.80
2018-11-13T16:15:37.133Z,4.67
2018-11-13T16:18:06.856Z,9.47
2018-11-13T16:20:35.160Z,9.43
2018-11-13T16:23:03.512Z,3.63
2018-11-13T16:25:31.859Z,9.43
2018-11-13T16:28:00.309Z,6.03
2018-11-13T16:30:30.420Z,4.40
2018-11-13T16:32:58.529Z,7.97
2018-11-13T16:35:27.772Z,7.63
2018-11-13T16:37:57.019Z,8.43
2018-11-13T16:40:26.606Z,8.53
2018-11-13T16:42:55.035Z,5.63
2018-11-13T16:45:25.014Z,14.77
2018-11-13T16:47:54.977Z,8.80
2018-11-13T16:50:26.595Z,7.93
2018-11-13T16:52:55.687Z,4.50
2018-11-13T16:55:29.658Z,14.63
2018-11-13T16:58:01.986Z,9.07
2018-11-13T17:00:32.015Z,8.47
2018-11-13T17:03:01.913Z,7.20
2018-11-13T17:05:32.751Z,18.80
2018-11-13T17:08:02.818Z,8.97
2018-11-13T17:10:33.707Z,15.23
2018-11-13T17:13:06.243Z,15.07
2018-11-13T17:15:34.944Z,8.97
2018-11-13T17:18:03.890Z,13.73
2018-11-13T17:20:32.372Z,11.37
2018-11-13T17:23:01.246Z,10.23
2018-11-13T17:25:33.438Z,9.07
2018-11-13T17:28:04.190Z,14.27
2018-11-13T17:30:35.724Z,10.90
2018-11-13T17:33:06.852Z,14.23
2018-11-13T17:35:37.007Z,8.43
2018-11-13T17:38:07.885Z,10.10
2018-11-13T17:40:38.203Z,7.40
2018-11-13T17:43:08.433Z,14.53
2018-11-13T17:45:40.307Z,10.67
2018-11-13T17:48:11.136Z,12.93
2018-11-13T17:50:41.768Z,7.50
2018-11-13T17:53:11.851Z,11.27
2018-11-13T17:55:41.663Z,10.17
2018-11-13T17:58:13.648Z,9.20
2018-11-13T18:00:46.003Z,11.87
2018-11-13T18:03:16.476Z,14.63
2018-11-13T18:05:48.986Z,8.90
2018-11-13T18:08:22.048Z,8.13
2018-11-13T18:10:51.471Z,11.90
2018-11-13T18:13:21.167Z,9.00
2018-11-13T18:15:50.718Z,7.07
2018-11-13T18:18:20.429Z,9.13
2018-11-13T18:20:50.434Z,13.57
2018-11-13T18:23:20.263Z,9.43
2018-11-13T18:25:51.362Z,7.60
2018-11-13T18:28:21.561Z,11.70
2018-11-13T18:30:51.289Z,9.73
2018-11-13T18:33:22.403Z,12.03
2018-11-13T18:35:53.521Z,9.57
2018-11-13T18:38:25.171Z,17.23
2018-11-13T18:40:55.348Z,29.20
2018-11-13T18:43:26.101Z,11.17
2018-11-13T18:45:56.232Z,12.70
2018-11-13T18:48:26.643Z,12.27
2018-11-13T18:50:56.234Z,9.30
2018-11-13T18:53:25.679Z,12.87
2018-11-13T18:55:55.245Z,16.80
2018-11-13T18:58:25.557Z,12.67
2018-11-13T19:00:56.006Z,12.43
2018-11-13T19:03:25.940Z,11.70
2018-11-13T19:05:55.556Z,8.10
2018-11-13T19:08:32.297Z,12.93
2018-11-13T19:11:03.853Z,12.43
2018-11-13T19:13:33.723Z,12.40
2018-11-13T19:16:05.738Z,16.33
2018-11-13T19:18:35.448Z,12.57
2018-11-13T19:21:04.154Z,17.90
2018-11-13T19:23:32.457Z,13.43
2018-11-13T19:26:00.892Z,12.23
2018-11-13T19:28:29.268Z,14.30
2018-11-13T19:30:57.746Z,13.83
2018-11-13T19:33:26.139Z,24.33
2018-11-13T19:35:54.546Z,14.07
2018-11-13T19:38:22.908Z,14.40
2018-11-13T19:40:51.299Z,14.17
2018-11-13T19:43:19.617Z,9.47
2018-11-13T19:45:48.049Z,12.77
2018-11-13T19:48:16.425Z,28.13
2018-11-13T19:50:44.806Z,17.13
2018-11-13T19:53:13.181Z,19.63
2018-11-13T19:55:41.551Z,14.87
2018-11-13T19:58:09.966Z,14.50
2018-11-13T20:00:42.232Z,13.33
2018-11-13T20:03:11.397Z,23.30
2018-11-13T20:05:41.031Z,15.10
2018-11-13T20:08:10.652Z,13.13
2018-11-13T20:10:40.168Z,18.40
2018-11-13T20:13:09.285Z,19.33
2018-11-13T20:15:38.082Z,15.70
2018-11-13T20:18:06.505Z,13.33
2018-11-13T20:20:35.807Z,12.63
2018-11-13T20:23:05.299Z,18.53
2018-11-13T20:25:34.574Z,13.93
2018-11-13T20:28:08.755Z,17.90
2018-11-13T20:30:39.433Z,13.23
2018-11-13T20:33:07.858Z,14.10
2018-11-13T20:35:36.247Z,16.53
2018-11-13T20:38:07.656Z,14.87
2018-11-13T20:40:36.760Z,17.00
2018-11-13T20:43:06.505Z,22.40
2018-11-13T20:45:34.789Z,14.50
2018-11-13T20:48:03.080Z,18.40
2018-11-13T20:50:32.461Z,18.67
2018-11-13T20:53:00.775Z,15.23
2018-11-13T20:55:29.195Z,14.97
2018-11-13T20:57:57.623Z,13.53
2018-11-13T21:00:29.043Z,11.87
2018-11-13T21:02:57.611Z,12.87
2018-11-13T21:05:26.092Z,11.53
2018-11-13T21:07:54.607Z,20.73
2018-11-13T21:10:23.329Z,29.40
2018-11-13T21:12:52.491Z,23.27
2018-11-13T21:18:13.312Z,17.97
2018-11-13T21:20:41.888Z,18.73
2018-11-13T21:23:10.287Z,14.13
2018-11-13T21:25:38.680Z,20.90
2018-11-13T21:28:07.084Z,16.00
2018-11-13T21:30:35.662Z,21.10
2018-11-13T21:33:04.091Z,23.73
2018-11-13T21:35:32.645Z,17.87
2018-11-13T21:38:01.111Z,18.23
2018-11-13T21:40:29.603Z,20.10
2018-11-13T21:42:58.311Z,12.40
2018-11-13T21:45:28.224Z,19.80
2018-11-13T21:47:56.580Z,16.93
2018-11-13T21:50:26.622Z,22.87
2018-11-13T21:52:54.854Z,16.70
2018-11-13T21:55:24.323Z,13.53
2018-11-13T21:57:52.823Z,17.07
2018-11-13T22:00:24.000Z,17.97
2018-11-13T22:02:56.761Z,16.10
2018-11-13T22:05:26.120Z,33.27
2018-11-13T22:07:54.489Z,27.03
2018-11-13T22:10:22.992Z,22.40
2018-11-13T22:12:51.381Z,21.93
2018-11-13T22:15:21.162Z,16.43
2018-11-13T22:17:49.630Z,19.50
2018-11-13T22:20:18.662Z,19.23
2018-11-13T22:22:48.227Z,19.00
2018-11-13T22:25:19.033Z,20.87
2018-11-13T22:27:48.513Z,23.13
2018-11-13T22:30:18.135Z,20.90
2018-11-13T22:32:47.899Z,12.20
2018-11-13T22:35:16.777Z,17.03
2018-11-13T22:37:45.256Z,17.20
2018-11-13T22:40:17.462Z,25.83
2018-11-13T22:42:46.259Z,15.60
2018-11-13T22:45:17.213Z,19.27
2018-11-13T22:47:45.591Z,20.27
2018-11-13T22:50:17.227Z,21.00
2018-11-13T22:52:45.999Z,18.80
2018-11-13T22:55:15.031Z,18.37
2018-11-13T22:57:44.207Z,15.93
2018-11-13T23:00:18.171Z,14.37
2018-11-13T23:02:46.996Z,14.40
2018-11-13T23:05:15.382Z,16.13
2018-11-13T23:07:43.795Z,11.70
2018-11-13T23:10:13.300Z,20.83
2018-11-13T23:12:43.551Z,14.00
2018-11-13T23:15:15.312Z,19.70
2018-11-13T23:17:44.796Z,18.37
2018-11-13T23:20:16.718Z,18.10
2018-11-13T23:22:46.305Z,11.73
2018-11-13T23:25:17.312Z,14.90
2018-11-13T23:27:47.240Z,20.47
2018-11-13T23:30:18.691Z,18.97
2018-11-13T23:32:48.322Z,14.57
2018-11-13T23:35:17.214Z,15.27
2018-11-13T23:37:46.802Z,12.30
2018-11-13T23:40:16.331Z,10.60
2018-11-13T23:42:46.198Z,12.20
2018-11-13T23:45:16.589Z,14.80
2018-11-13T23:47:45.303Z,13.30
2018-11-13T23:50:13.868Z,21.17
2018-11-13T23:52:42.483Z,9.27
2018-11-13T23:55:11.896Z,14.70
2018-11-13T23:57:40.840Z,14.80
